sensor_id;sensor_type;location;lat;lon;timestamp;temperature;humidity
31991;DHT22;18508;49.386;8.370;2022-12-20T00:01:52;4.50;99.90
31991;DHT22;18508;49.386;8.370;2022-12-20T00:04:21;4.40;99.90
31991;DHT22;18508;49.386;8.370;2022-12-20T00:06:49;4.40;99.90
31991;DHT22;18508;49.386;8.370;2022-12-20T00:09:17;4.40;99.90
31991;DHT22;18508;49.386;8.370;2022-12-20T00:11:45;4.40;99.90
31991;DHT22;18508;49.386;8.370;2022-12-20T00:14:16;4.40;99.90
31991;DHT22;18508;49.386;8.370;2022-12-20T00:16:44;4.40;99.90
31991;DHT22;18508;49.386;8.370;2022-12-20T00:19:13;4.40;99.90
31991;DHT22;18508;49.386;8.370;2022-12-20T00:21:41;4.50;99.90
31991;DHT22;18508;49.386;8.370;2022-12-20T00:24:09;4.50;99.90
31991;DHT22;18508;49.386;8.370;2022-12-20T00:26:37;4.40;99.90
31991;DHT22;18508;49.386;8.370;2022-12-20T00:29:06;4.40;99.90
31991;DHT22;18508;49.386;8.370;2022-12-20T00:31:36;4.40;99.90
31991;DHT22;18508;49.386;8.370;2022-12-20T00:34:04;4.40;99.90
31991;DHT22;18508;49.386;8.370;2022-12-20T00:36:33;4.40;99.90
31991;DHT22;18508;49.386;8.370;2022-12-20T00:39:01;4.40;99.90
31991;DHT22;18508;49.386;8.370;2022-12-20T00:41:32;4.40;99.90
31991;DHT22;18508;49.386;8.370;2022-12-20T00:44:01;4.20;99.90
31991;DHT22;18508;49.386;8.370;2022-12-20T00:46:30;4.40;99.90
31991;DHT22;18508;49.386;8.370;2022-12-20T00:49:01;4.30;99.90
31991;DHT22;18508;49.386;8.370;2022-12-20T00:51:29;4.30;99.90
31991;DHT22;18508;49.386;8.370;2022-12-20T00:53:59;4.30;99.90
31991;DHT22;18508;49.386;8.370;2022-12-20T00:56:27;4.20;99.90
31991;DHT22;18508;49.386;8.370;2022-12-20T00:58:57;4.20;99.90
31991;DHT22;18508;49.386;8.370;2022-12-20T01:01:28;3.90;99.90
31991;DHT22;18508;49.386;8.370;2022-12-20T01:04:02;4.20;99.90
31991;DHT22;18508;49.386;8.370;2022-12-20T01:06:31;4.20;99.90
31991;DHT22;18508;49.386;8.370;2022-12-20T01:08:59;4.10;99.90
31991;DHT22;18508;49.386;8.370;2022-12-20T01:11:29;4.00;99.90
31991;DHT22;18508;49.386;8.370;2022-12-20T01:14:01;4.00;99.90
31991;DHT22;18508;49.386;8.370;2022-12-20T01:16:31;3.90;99.90
31991;DHT22;18508;49.386;8.370;2022-12-20T01:21:30;3.90;99.90
31991;DHT22;18508;49.386;8.370;2022-12-20T01:24:02;3.90;99.90
31991;DHT22;18508;49.386;8.370;2022-12-20T01:26:31;3.90;99.90
31991;DHT22;18508;49.386;8.370;2022-12-20T01:28:59;4.00;99.90
31991;DHT22;18508;49.386;8.370;2022-12-20T01:31:29;4.00;99.90
31991;DHT22;18508;49.386;8.370;2022-12-20T01:33:58;4.00;99.90
31991;DHT22;18508;49.386;8.370;2022-12-20T01:36:31;4.00;99.90
31991;DHT22;18508;49.386;8.370;2022-12-20T01:39:06;4.00;99.90
31991;DHT22;18508;49.386;8.370;2022-12-20T01:41:36;4.10;99.90
31991;DHT22;18508;49.386;8.370;2022-12-20T01:44:47;4.00;99.90
31991;DHT22;18508;49.386;8.370;2022-12-20T01:46:54;4.10;99.90
31991;DHT22;18508;49.386;8.370;2022-12-20T01:49:25;4.10;99.90
31991;DHT22;18508;49.386;8.370;2022-12-20T01:52:00;4.10;99.90
31991;DHT22;18508;49.386;8.370;2022-12-20T01:54:32;4.10;99.90
31991;DHT22;18508;49.386;8.370;2022-12-20T01:57:04;4.10;99.90
31991;DHT22;18508;49.386;8.370;2022-12-20T01:59:36;4.10;99.90
31991;DHT22;18508;49.386;8.370;2022-12-20T02:02:10;4.10;99.90
31991;DHT22;18508;49.386;8.370;2022-12-20T02:04:40;4.10;99.90
31991;DHT22;18508;49.386;8.370;2022-12-20T02:07:13;4.10;99.90
31991;DHT22;18508;49.386;8.370;2022-12-20T02:09:44;4.10;99.90
31991;DHT22;18508;49.386;8.370;2022-12-20T02:12:14;4.00;99.90
31991;DHT22;18508;49.386;8.370;2022-12-20T02:14:57;4.00;99.90
31991;DHT22;18508;49.386;8.370;2022-12-20T02:17:34;3.90;99.90
31991;DHT22;18508;49.386;8.370;2022-12-20T02:23:38;3.90;99.90
31991;DHT22;18508;49.386;8.370;2022-12-20T02:26:49;3.90;99.90
31991;DHT22;18508;49.386;8.370;2022-12-20T02:29:27;4.00;99.90
31991;DHT22;18508;49.386;8.370;2022-12-20T02:32:08;4.20;99.90
31991;DHT22;18508;49.386;8.370;2022-12-20T02:34:39;4.00;99.90
31991;DHT22;18508;49.386;8.370;2022-12-20T02:37:08;4.10;99.90
31991;DHT22;18508;49.386;8.370;2022-12-20T02:39:38;4.40;99.90
31991;DHT22;18508;49.386;8.370;2022-12-20T02:42:10;4.40;99.90
31991;DHT22;18508;49.386;8.370;2022-12-20T02:44:44;4.20;99.90
31991;DHT22;18508;49.386;8.370;2022-12-20T02:47:36;4.30;99.90
31991;DHT22;18508;49.386;8.370;2022-12-20T02:50:08;4.30;99.90
31991;DHT22;18508;49.386;8.370;2022-12-20T02:52:40;4.20;99.90
31991;DHT22;18508;49.386;8.370;2022-12-20T02:55:08;4.20;99.90
31991;DHT22;18508;49.386;8.370;2022-12-20T02:57:44;4.10;99.90
31991;DHT22;18508;49.386;8.370;2022-12-20T03:00:21;3.80;99.90
31991;DHT22;18508;49.386;8.370;2022-12-20T03:02:51;3.90;99.90
31991;DHT22;18508;49.386;8.370;2022-12-20T03:05:43;3.70;99.90
31991;DHT22;18508;49.386;8.370;2022-12-20T03:08:15;3.70;99.90
31991;DHT22;18508;49.386;8.370;2022-12-20T03:10:44;3.70;99.90
31991;DHT22;18508;49.386;8.370;2022-12-20T03:13:12;3.70;99.90
31991;DHT22;18508;49.386;8.370;2022-12-20T03:15:40;3.90;99.90
31991;DHT22;18508;49.386;8.370;2022-12-20T03:18:09;3.40;99.90
31991;DHT22;18508;49.386;8.370;2022-12-20T03:20:38;3.70;99.90
31991;DHT22;18508;49.386;8.370;2022-12-20T03:23:07;3.70;99.90
31991;DHT22;18508;49.386;8.370;2022-12-20T03:25:39;3.20;99.90
31991;DHT22;18508;49.386;8.370;2022-12-20T03:28:07;3.20;99.90
31991;DHT22;18508;49.386;8.370;2022-12-20T03:30:35;3.60;99.90
31991;DHT22;18508;49.386;8.370;2022-12-20T03:33:03;3.50;99.90
31991;DHT22;18508;49.386;8.370;2022-12-20T03:35:33;3.40;99.90
31991;DHT22;18508;49.386;8.370;2022-12-20T03:38:01;3.60;99.90
31991;DHT22;18508;49.386;8.370;2022-12-20T03:40:32;3.30;99.90
31991;DHT22;18508;49.386;8.370;2022-12-20T03:43:00;2.90;99.90
31991;DHT22;18508;49.386;8.370;2022-12-20T03:45:29;3.50;99.90
31991;DHT22;18508;49.386;8.370;2022-12-20T03:48:00;3.60;99.90
31991;DHT22;18508;49.386;8.370;2022-12-20T03:50:28;3.70;99.90
31991;DHT22;18508;49.386;8.370;2022-12-20T03:52:58;4.20;99.90
31991;DHT22;18508;49.386;8.370;2022-12-20T03:55:26;3.90;99.90
31991;DHT22;18508;49.386;8.370;2022-12-20T03:57:54;4.10;99.90
31991;DHT22;18508;49.386;8.370;2022-12-20T04:00:23;4.20;99.90
31991;DHT22;18508;49.386;8.370;2022-12-20T04:02:51;4.30;99.90
31991;DHT22;18508;49.386;8.370;2022-12-20T04:05:20;4.40;99.90
31991;DHT22;18508;49.386;8.370;2022-12-20T04:07:50;4.50;99.90
31991;DHT22;18508;49.386;8.370;2022-12-20T04:10:22;4.60;99.90
31991;DHT22;18508;49.386;8.370;2022-12-20T04:12:50;4.60;99.90
31991;DHT22;18508;49.386;8.370;2022-12-20T04:15:19;4.90;99.90
31991;DHT22;18508;49.386;8.370;2022-12-20T04:17:51;4.80;99.90
31991;DHT22;18508;49.386;8.370;2022-12-20T04:20:19;4.90;99.90
31991;DHT22;18508;49.386;8.370;2022-12-20T04:22:48;4.90;99.90
31991;DHT22;18508;49.386;8.370;2022-12-20T04:25:19;5.00;99.90
31991;DHT22;18508;49.386;8.370;2022-12-20T04:27:49;5.00;99.90
31991;DHT22;18508;49.386;8.370;2022-12-20T04:30:17;5.00;99.90
31991;DHT22;18508;49.386;8.370;2022-12-20T04:32:46;5.10;99.90
31991;DHT22;18508;49.386;8.370;2022-12-20T04:35:14;5.00;99.90
31991;DHT22;18508;49.386;8.370;2022-12-20T04:37:44;5.00;99.90
31991;DHT22;18508;49.386;8.370;2022-12-20T04:40:12;5.00;99.90
31991;DHT22;18508;49.386;8.370;2022-12-20T04:42:45;5.10;99.90
31991;DHT22;18508;49.386;8.370;2022-12-20T04:45:15;5.10;99.90
31991;DHT22;18508;49.386;8.370;2022-12-20T04:47:43;5.10;99.90
31991;DHT22;18508;49.386;8.370;2022-12-20T04:50:11;5.10;99.90
31991;DHT22;18508;49.386;8.370;2022-12-20T04:52:39;5.10;99.90
31991;DHT22;18508;49.386;8.370;2022-12-20T04:55:24;5.10;99.90
31991;DHT22;18508;49.386;8.370;2022-12-20T04:57:53;5.10;99.90
31991;DHT22;18508;49.386;8.370;2022-12-20T05:00:32;5.10;99.90
31991;DHT22;18508;49.386;8.370;2022-12-20T05:03:02;5.10;99.90
31991;DHT22;18508;49.386;8.370;2022-12-20T05:09:19;5.10;99.90
31991;DHT22;18508;49.386;8.370;2022-12-20T05:11:47;5.10;99.90
31991;DHT22;18508;49.386;8.370;2022-12-20T05:14:15;5.10;99.90
31991;DHT22;18508;49.386;8.370;2022-12-20T05:16:46;5.10;99.90
31991;DHT22;18508;49.386;8.370;2022-12-20T05:19:14;5.20;99.90
31991;DHT22;18508;49.386;8.370;2022-12-20T05:21:42;5.20;99.90
31991;DHT22;18508;49.386;8.370;2022-12-20T05:24:30;5.20;99.90
31991;DHT22;18508;49.386;8.370;2022-12-20T05:27:16;5.20;99.90
31991;DHT22;18508;49.386;8.370;2022-12-20T05:29:44;5.20;99.90
31991;DHT22;18508;49.386;8.370;2022-12-20T05:32:14;5.20;99.90
31991;DHT22;18508;49.386;8.370;2022-12-20T05:34:43;5.30;99.90
31991;DHT22;18508;49.386;8.370;2022-12-20T05:37:10;4.80;99.90
31991;DHT22;18508;49.386;8.370;2022-12-20T05:39:39;5.30;99.90
31991;DHT22;18508;49.386;8.370;2022-12-20T05:42:08;5.30;99.90
31991;DHT22;18508;49.386;8.370;2022-12-20T05:44:37;5.30;99.90
31991;DHT22;18508;49.386;8.370;2022-12-20T05:47:05;5.30;99.90
31991;DHT22;18508;49.386;8.370;2022-12-20T05:49:34;5.70;99.90
31991;DHT22;18508;49.386;8.370;2022-12-20T05:52:06;5.30;99.90
31991;DHT22;18508;49.386;8.370;2022-12-20T05:54:34;5.30;99.90
31991;DHT22;18508;49.386;8.370;2022-12-20T05:57:03;5.30;99.90
31991;DHT22;18508;49.386;8.370;2022-12-20T05:59:32;5.40;99.90
31991;DHT22;18508;49.386;8.370;2022-12-20T06:02:04;5.40;99.90
31991;DHT22;18508;49.386;8.370;2022-12-20T06:04:35;5.40;99.90
31991;DHT22;18508;49.386;8.370;2022-12-20T06:07:04;5.50;99.90
31991;DHT22;18508;49.386;8.370;2022-12-20T06:09:32;5.50;99.90
31991;DHT22;18508;49.386;8.370;2022-12-20T06:12:01;5.40;99.90
31991;DHT22;18508;49.386;8.370;2022-12-20T06:14:29;5.40;99.90
31991;DHT22;18508;49.386;8.370;2022-12-20T06:16:57;5.50;99.90
31991;DHT22;18508;49.386;8.370;2022-12-20T06:19:26;5.40;99.90
31991;DHT22;18508;49.386;8.370;2022-12-20T06:21:57;5.40;99.90
31991;DHT22;18508;49.386;8.370;2022-12-20T06:24:27;5.00;99.90
31991;DHT22;18508;49.386;8.370;2022-12-20T06:26:55;5.40;99.90
31991;DHT22;18508;49.386;8.370;2022-12-20T06:29:23;5.70;99.90
31991;DHT22;18508;49.386;8.370;2022-12-20T06:31:53;5.50;99.90
31991;DHT22;18508;49.386;8.370;2022-12-20T06:34:22;5.50;99.90
31991;DHT22;18508;49.386;8.370;2022-12-20T06:36:51;5.50;99.90
31991;DHT22;18508;49.386;8.370;2022-12-20T06:39:21;5.50;99.90
31991;DHT22;18508;49.386;8.370;2022-12-20T06:41:50;5.50;99.90
31991;DHT22;18508;49.386;8.370;2022-12-20T06:44:17;5.60;99.90
31991;DHT22;18508;49.386;8.370;2022-12-20T06:49:15;5.50;99.90
31991;DHT22;18508;49.386;8.370;2022-12-20T06:51:43;5.60;99.90
31991;DHT22;18508;49.386;8.370;2022-12-20T06:54:11;5.70;99.90
31991;DHT22;18508;49.386;8.370;2022-12-20T06:56:41;5.70;99.90
31991;DHT22;18508;49.386;8.370;2022-12-20T06:59:09;5.70;99.90
31991;DHT22;18508;49.386;8.370;2022-12-20T07:01:37;6.30;99.90
31991;DHT22;18508;49.386;8.370;2022-12-20T07:04:05;5.70;99.90
31991;DHT22;18508;49.386;8.370;2022-12-20T07:06:34;5.80;99.90
31991;DHT22;18508;49.386;8.370;2022-12-20T07:09:02;5.80;99.90
31991;DHT22;18508;49.386;8.370;2022-12-20T07:11:30;5.80;99.90
31991;DHT22;18508;49.386;8.370;2022-12-20T07:14:00;5.80;99.90
31991;DHT22;18508;49.386;8.370;2022-12-20T07:16:28;5.90;99.90
31991;DHT22;18508;49.386;8.370;2022-12-20T07:18:59;5.90;99.90
31991;DHT22;18508;49.386;8.370;2022-12-20T07:21:29;5.60;99.90
31991;DHT22;18508;49.386;8.370;2022-12-20T07:23:57;5.90;99.90
31991;DHT22;18508;49.386;8.370;2022-12-20T07:26:25;5.90;99.90
31991;DHT22;18508;49.386;8.370;2022-12-20T07:28:54;5.90;99.90
31991;DHT22;18508;49.386;8.370;2022-12-20T07:31:24;5.90;99.90
31991;DHT22;18508;49.386;8.370;2022-12-20T07:33:52;5.90;99.90
31991;DHT22;18508;49.386;8.370;2022-12-20T07:36:21;6.00;99.90
31991;DHT22;18508;49.386;8.370;2022-12-20T07:38:50;6.00;99.90
31991;DHT22;18508;49.386;8.370;2022-12-20T07:41:18;6.00;99.90
31991;DHT22;18508;49.386;8.370;2022-12-20T07:43:46;6.00;99.90
31991;DHT22;18508;49.386;8.370;2022-12-20T07:46:16;6.00;99.90
31991;DHT22;18508;49.386;8.370;2022-12-20T07:48:47;6.00;99.90
31991;DHT22;18508;49.386;8.370;2022-12-20T07:51:18;6.00;99.90
31991;DHT22;18508;49.386;8.370;2022-12-20T07:53:50;6.00;99.90
31991;DHT22;18508;49.386;8.370;2022-12-20T07:56:20;5.90;99.90
31991;DHT22;18508;49.386;8.370;2022-12-20T07:58:52;5.90;99.90
31991;DHT22;18508;49.386;8.370;2022-12-20T08:01:28;5.90;99.90
31991;DHT22;18508;49.386;8.370;2022-12-20T08:04:06;5.90;99.90
31991;DHT22;18508;49.386;8.370;2022-12-20T08:06:36;5.90;99.90
31991;DHT22;18508;49.386;8.370;2022-12-20T08:09:08;5.90;99.90
31991;DHT22;18508;49.386;8.370;2022-12-20T08:11:41;6.00;99.90
31991;DHT22;18508;49.386;8.370;2022-12-20T08:14:11;5.90;99.90
31991;DHT22;18508;49.386;8.370;2022-12-20T08:19:10;6.00;99.90
31991;DHT22;18508;49.386;8.370;2022-12-20T08:24:08;5.60;99.90
31991;DHT22;18508;49.386;8.370;2022-12-20T08:26:38;5.50;99.90
31991;DHT22;18508;49.386;8.370;2022-12-20T08:34:17;6.00;99.90
31991;DHT22;18508;49.386;8.370;2022-12-20T08:51:37;6.30;99.90
31991;DHT22;18508;49.386;8.370;2022-12-20T09:08:59;6.40;99.90
31991;DHT22;18508;49.386;8.370;2022-12-20T09:13:57;6.60;99.90
31991;DHT22;18508;49.386;8.370;2022-12-20T09:16:27;6.60;99.90
31991;DHT22;18508;49.386;8.370;2022-12-20T09:18:57;6.40;99.90
31991;DHT22;18508;49.386;8.370;2022-12-20T09:21:31;6.90;99.90
31991;DHT22;18508;49.386;8.370;2022-12-20T09:24:01;6.70;99.90
31991;DHT22;18508;49.386;8.370;2022-12-20T09:28:58;7.00;99.90
31991;DHT22;18508;49.386;8.370;2022-12-20T09:31:28;6.90;99.90
31991;DHT22;18508;49.386;8.370;2022-12-20T09:33:57;7.40;99.90
31991;DHT22;18508;49.386;8.370;2022-12-20T09:36:28;7.40;99.90
31991;DHT22;18508;49.386;8.370;2022-12-20T09:38:57;7.50;99.90
31991;DHT22;18508;49.386;8.370;2022-12-20T09:41:29;7.30;95.20
31991;DHT22;18508;49.386;8.370;2022-12-20T09:44:01;7.30;92.90
31991;DHT22;18508;49.386;8.370;2022-12-20T09:48:59;7.40;43.40
31991;DHT22;18508;49.386;8.370;2022-12-20T09:51:45;7.70;10.20
31991;DHT22;18508;49.386;8.370;2022-12-20T09:54:22;7.60;99.90
31991;DHT22;18508;49.386;8.370;2022-12-20T09:57:00;7.70;1.00
31991;DHT22;18508;49.386;8.370;2022-12-20T09:59:33;7.60;1.00
31991;DHT22;18508;49.386;8.370;2022-12-20T10:02:08;7.70;46.70
31991;DHT22;18508;49.386;8.370;2022-12-20T10:07:41;7.60;1.00
31991;DHT22;18508;49.386;8.370;2022-12-20T10:10:27;7.50;25.60
31991;DHT22;18508;49.386;8.370;2022-12-20T10:13:14;7.60;99.90
31991;DHT22;18508;49.386;8.370;2022-12-20T10:15:48;8.00;99.90
31991;DHT22;18508;49.386;8.370;2022-12-20T10:18:39;7.70;1.00
31991;DHT22;18508;49.386;8.370;2022-12-20T10:21:16;7.70;1.00
31991;DHT22;18508;49.386;8.370;2022-12-20T10:23:56;7.80;1.00
31991;DHT22;18508;49.386;8.370;2022-12-20T10:28:58;8.00;99.90
31991;DHT22;18508;49.386;8.370;2022-12-20T10:36:25;8.30;1.00
31991;DHT22;18508;49.386;8.370;2022-12-20T10:38:54;8.40;1.00
31991;DHT22;18508;49.386;8.370;2022-12-20T10:41:25;8.40;1.00
31991;DHT22;18508;49.386;8.370;2022-12-20T10:43:57;8.40;99.90
31991;DHT22;18508;49.386;8.370;2022-12-20T10:46:38;8.40;1.00
31991;DHT22;18508;49.386;8.370;2022-12-20T10:49:26;8.40;99.90
31991;DHT22;18508;49.386;8.370;2022-12-20T10:51:58;8.50;1.00
31991;DHT22;18508;49.386;8.370;2022-12-20T10:54:35;8.40;1.00
31991;DHT22;18508;49.386;8.370;2022-12-20T10:57:17;8.40;1.00
31991;DHT22;18508;49.386;8.370;2022-12-20T10:59:50;8.40;1.00
31991;DHT22;18508;49.386;8.370;2022-12-20T11:02:25;8.40;1.00
31991;DHT22;18508;49.386;8.370;2022-12-20T11:05:20;8.30;3.20
31991;DHT22;18508;49.386;8.370;2022-12-20T11:07:53;8.50;5.50
31991;DHT22;18508;49.386;8.370;2022-12-20T11:13:20;8.30;99.90
31991;DHT22;18508;49.386;8.370;2022-12-20T11:15:53;8.30;1.00
31991;DHT22;18508;49.386;8.370;2022-12-20T11:18:34;8.40;1.00
31991;DHT22;18508;49.386;8.370;2022-12-20T11:21:11;8.40;99.90
31991;DHT22;18508;49.386;8.370;2022-12-20T11:23:54;8.80;1.00
31991;DHT22;18508;49.386;8.370;2022-12-20T11:26:40;8.50;1.00
31991;DHT22;18508;49.386;8.370;2022-12-20T11:29:21;8.60;99.90
31991;DHT22;18508;49.386;8.370;2022-12-20T11:32:01;8.60;1.00
31991;DHT22;18508;49.386;8.370;2022-12-20T11:34:38;8.60;1.00
31991;DHT22;18508;49.386;8.370;2022-12-20T11:37:18;8.50;5.10
31991;DHT22;18508;49.386;8.370;2022-12-20T11:40:03;8.60;1.00
31991;DHT22;18508;49.386;8.370;2022-12-20T11:42:44;8.60;1.00
31991;DHT22;18508;49.386;8.370;2022-12-20T11:45:22;8.60;1.00
31991;DHT22;18508;49.386;8.370;2022-12-20T11:48:34;8.60;14.80
31991;DHT22;18508;49.386;8.370;2022-12-20T11:51:09;8.70;15.40
31991;DHT22;18508;49.386;8.370;2022-12-20T11:53:49;8.60;14.30
31991;DHT22;18508;49.386;8.370;2022-12-20T11:56:22;8.90;1.00
31991;DHT22;18508;49.386;8.370;2022-12-20T11:58:58;8.80;1.00
31991;DHT22;18508;49.386;8.370;2022-12-20T12:01:30;9.10;99.90
31991;DHT22;18508;49.386;8.370;2022-12-20T12:04:06;9.10;1.00
31991;DHT22;18508;49.386;8.370;2022-12-20T12:06:38;9.00;1.00
31991;DHT22;18508;49.386;8.370;2022-12-20T12:09:14;9.00;1.00
31991;DHT22;18508;49.386;8.370;2022-12-20T12:11:47;9.00;1.00
31991;DHT22;18508;49.386;8.370;2022-12-20T12:14:43;9.00;1.00
31991;DHT22;18508;49.386;8.370;2022-12-20T12:17:22;9.10;1.00
31991;DHT22;18508;49.386;8.370;2022-12-20T12:19:55;9.00;1.00
31991;DHT22;18508;49.386;8.370;2022-12-20T12:22:34;9.00;1.00
31991;DHT22;18508;49.386;8.370;2022-12-20T12:25:08;9.00;1.00
31991;DHT22;18508;49.386;8.370;2022-12-20T12:30:11;9.00;1.00
31991;DHT22;18508;49.386;8.370;2022-12-20T12:32:43;9.00;1.00
31991;DHT22;18508;49.386;8.370;2022-12-20T12:35:37;9.50;1.00
31991;DHT22;18508;49.386;8.370;2022-12-20T12:38:40;9.10;1.00
31991;DHT22;18508;49.386;8.370;2022-12-20T12:44:34;9.30;1.00
31991;DHT22;18508;49.386;8.370;2022-12-20T12:47:11;9.40;1.00
31991;DHT22;18508;49.386;8.370;2022-12-20T12:49:43;9.40;1.00
31991;DHT22;18508;49.386;8.370;2022-12-20T12:52:27;9.40;1.00
31991;DHT22;18508;49.386;8.370;2022-12-20T12:57:55;9.30;1.00
31991;DHT22;18508;49.386;8.370;2022-12-20T13:00:48;9.00;1.00
31991;DHT22;18508;49.386;8.370;2022-12-20T13:03:36;9.30;1.00
31991;DHT22;18508;49.386;8.370;2022-12-20T13:09:21;9.70;1.00
31991;DHT22;18508;49.386;8.370;2022-12-20T13:15:51;7.50;1.00
31991;DHT22;18508;49.386;8.370;2022-12-20T13:18:26;9.70;99.90
31991;DHT22;18508;49.386;8.370;2022-12-20T13:21:17;9.50;1.00
31991;DHT22;18508;49.386;8.370;2022-12-20T13:27:00;9.30;99.90
31991;DHT22;18508;49.386;8.370;2022-12-20T13:29:33;9.20;1.00
31991;DHT22;18508;49.386;8.370;2022-12-20T13:32:01;9.30;1.00
31991;DHT22;18508;49.386;8.370;2022-12-20T13:34:38;9.00;1.00
31991;DHT22;18508;49.386;8.370;2022-12-20T13:37:27;8.90;1.00
31991;DHT22;18508;49.386;8.370;2022-12-20T13:42:33;8.70;1.00
31991;DHT22;18508;49.386;8.370;2022-12-20T13:45:08;8.70;1.00
31991;DHT22;18508;49.386;8.370;2022-12-20T13:47:43;8.60;88.40
31991;DHT22;18508;49.386;8.370;2022-12-20T13:50:26;8.60;99.90
31991;DHT22;18508;49.386;8.370;2022-12-20T13:55:30;8.60;1.00
31991;DHT22;18508;49.386;8.370;2022-12-20T13:58:06;8.60;1.00
31991;DHT22;18508;49.386;8.370;2022-12-20T14:03:16;8.60;99.90
31991;DHT22;18508;49.386;8.370;2022-12-20T14:08:16;8.70;1.00
31991;DHT22;18508;49.386;8.370;2022-12-20T14:13:21;8.80;1.00
31991;DHT22;18508;49.386;8.370;2022-12-20T14:15:50;8.80;1.00
31991;DHT22;18508;49.386;8.370;2022-12-20T14:18:21;8.80;1.00
31991;DHT22;18508;49.386;8.370;2022-12-20T14:20:52;8.90;1.00
31991;DHT22;18508;49.386;8.370;2022-12-20T14:23:24;9.00;1.00
31991;DHT22;18508;49.386;8.370;2022-12-20T14:25:56;9.10;1.00
31991;DHT22;18508;49.386;8.370;2022-12-20T14:28:31;9.10;1.00
31991;DHT22;18508;49.386;8.370;2022-12-20T14:31:03;9.20;1.00
31991;DHT22;18508;49.386;8.370;2022-12-20T14:33:34;9.20;1.00
31991;DHT22;18508;49.386;8.370;2022-12-20T14:36:16;9.30;1.00
31991;DHT22;18508;49.386;8.370;2022-12-20T14:38:46;9.20;1.00
31991;DHT22;18508;49.386;8.370;2022-12-20T14:41:35;9.20;1.00
31991;DHT22;18508;49.386;8.370;2022-12-20T14:44:14;9.10;1.00
31991;DHT22;18508;49.386;8.370;2022-12-20T14:46:48;9.10;1.00
31991;DHT22;18508;49.386;8.370;2022-12-20T14:49:17;9.10;1.00
31991;DHT22;18508;49.386;8.370;2022-12-20T14:54:17;9.00;1.00
31991;DHT22;18508;49.386;8.370;2022-12-20T14:57:10;9.00;1.00
31991;DHT22;18508;49.386;8.370;2022-12-20T15:00:00;9.00;1.00
31991;DHT22;18508;49.386;8.370;2022-12-20T15:02:34;9.00;1.00
31991;DHT22;18508;49.386;8.370;2022-12-20T15:05:08;9.00;1.00
31991;DHT22;18508;49.386;8.370;2022-12-20T15:07:39;8.90;1.00
31991;DHT22;18508;49.386;8.370;2022-12-20T15:15:12;8.90;1.00
31991;DHT22;18508;49.386;8.370;2022-12-20T15:30:22;8.80;1.00
31991;DHT22;18508;49.386;8.370;2022-12-20T15:47:45;8.70;1.00
31991;DHT22;18508;49.386;8.370;2022-12-20T15:57:42;8.30;10.40
31991;DHT22;18508;49.386;8.370;2022-12-20T16:00:11;8.40;28.00
31991;DHT22;18508;49.386;8.370;2022-12-20T16:05:11;8.60;99.90
31991;DHT22;18508;49.386;8.370;2022-12-20T16:10:12;8.80;99.90
31991;DHT22;18508;49.386;8.370;2022-12-20T16:12:41;9.00;50.70
31991;DHT22;18508;49.386;8.370;2022-12-20T16:15:18;8.30;47.10
31991;DHT22;18508;49.386;8.370;2022-12-20T16:17:47;9.00;52.10
31991;DHT22;18508;49.386;8.370;2022-12-20T16:20:16;8.70;29.40
31991;DHT22;18508;49.386;8.370;2022-12-20T16:22:45;8.20;45.60
31991;DHT22;18508;49.386;8.370;2022-12-20T16:25:23;8.70;22.10
31991;DHT22;18508;49.386;8.370;2022-12-20T16:27:52;8.30;36.70
31991;DHT22;18508;49.386;8.370;2022-12-20T16:30:21;8.80;25.50
31991;DHT22;18508;49.386;8.370;2022-12-20T16:32:50;8.80;12.60
31991;DHT22;18508;49.386;8.370;2022-12-20T16:35:26;9.00;25.00
31991;DHT22;18508;49.386;8.370;2022-12-20T16:37:55;8.90;27.80
31991;DHT22;18508;49.386;8.370;2022-12-20T16:40:25;8.80;9.80
31991;DHT22;18508;49.386;8.370;2022-12-20T16:45:24;8.70;10.50
31991;DHT22;18508;49.386;8.370;2022-12-20T16:47:53;8.30;9.70
31991;DHT22;18508;49.386;8.370;2022-12-20T16:50:26;8.80;7.60
31991;DHT22;18508;49.386;8.370;2022-12-20T16:52:54;9.10;12.90
31991;DHT22;18508;49.386;8.370;2022-12-20T16:55:24;8.70;24.30
31991;DHT22;18508;49.386;8.370;2022-12-20T16:57:53;8.80;31.90
31991;DHT22;18508;49.386;8.370;2022-12-20T17:00:25;9.00;14.10
31991;DHT22;18508;49.386;8.370;2022-12-20T17:02:53;8.80;22.30
31991;DHT22;18508;49.386;8.370;2022-12-20T17:05:28;8.70;18.10
31991;DHT22;18508;49.386;8.370;2022-12-20T17:10:25;8.70;13.40
31991;DHT22;18508;49.386;8.370;2022-12-20T17:12:54;9.10;7.10
31991;DHT22;18508;49.386;8.370;2022-12-20T17:15:24;9.00;1.00
31991;DHT22;18508;49.386;8.370;2022-12-20T17:17:53;8.90;1.00
31991;DHT22;18508;49.386;8.370;2022-12-20T17:22:59;9.10;1.00
31991;DHT22;18508;49.386;8.370;2022-12-20T17:25:30;8.70;1.00
31991;DHT22;18508;49.386;8.370;2022-12-20T17:30:29;8.70;1.00
31991;DHT22;18508;49.386;8.370;2022-12-20T17:35:27;8.80;1.00
31991;DHT22;18508;49.386;8.370;2022-12-20T17:37:56;9.10;1.00
31991;DHT22;18508;49.386;8.370;2022-12-20T17:40:27;8.80;1.00
31991;DHT22;18508;49.386;8.370;2022-12-20T17:42:56;9.20;1.00
31991;DHT22;18508;49.386;8.370;2022-12-20T17:45:28;9.10;1.00
31991;DHT22;18508;49.386;8.370;2022-12-20T17:47:56;8.60;1.00
31991;DHT22;18508;49.386;8.370;2022-12-20T17:50:25;8.50;1.00
31991;DHT22;18508;49.386;8.370;2022-12-20T17:52:53;9.20;5.30
31991;DHT22;18508;49.386;8.370;2022-12-20T17:55:23;8.80;3.40
31991;DHT22;18508;49.386;8.370;2022-12-20T17:57:56;9.00;8.80
31991;DHT22;18508;49.386;8.370;2022-12-20T18:00:27;9.60;5.10
31991;DHT22;18508;49.386;8.370;2022-12-20T18:03:04;9.20;1.00
31991;DHT22;18508;49.386;8.370;2022-12-20T18:05:34;8.60;1.00
31991;DHT22;18508;49.386;8.370;2022-12-20T18:13:01;8.90;1.00
31991;DHT22;18508;49.386;8.370;2022-12-20T18:15:30;8.70;1.00
31991;DHT22;18508;49.386;8.370;2022-12-20T18:17:59;9.00;13.60
31991;DHT22;18508;49.386;8.370;2022-12-20T18:20:28;9.00;1.00
31991;DHT22;18508;49.386;8.370;2022-12-20T18:27:56;8.70;35.10
31991;DHT22;18508;49.386;8.370;2022-12-20T18:30:25;8.80;25.80
31991;DHT22;18508;49.386;8.370;2022-12-20T18:32:53;8.80;40.30
31991;DHT22;18508;49.386;8.370;2022-12-20T18:35:21;8.50;58.10
31991;DHT22;18508;49.386;8.370;2022-12-20T18:37:50;8.60;59.50
31991;DHT22;18508;49.386;8.370;2022-12-20T18:40:20;8.80;75.30
31991;DHT22;18508;49.386;8.370;2022-12-20T18:42:52;8.70;90.70
31991;DHT22;18508;49.386;8.370;2022-12-20T18:47:54;8.80;36.50
31991;DHT22;18508;49.386;8.370;2022-12-20T18:50:22;8.80;37.30
31991;DHT22;18508;49.386;8.370;2022-12-20T18:55:26;8.30;53.50
31991;DHT22;18508;49.386;8.370;2022-12-20T18:57:55;8.80;46.30
31991;DHT22;18508;49.386;8.370;2022-12-20T19:02:54;9.00;45.70
31991;DHT22;18508;49.386;8.370;2022-12-20T19:07:53;8.90;49.30
31991;DHT22;18508;49.386;8.370;2022-12-20T19:17:48;9.00;52.10
31991;DHT22;18508;49.386;8.370;2022-12-20T19:20:17;8.90;59.40
31991;DHT22;18508;49.386;8.370;2022-12-20T19:22:47;8.80;99.90
31991;DHT22;18508;49.386;8.370;2022-12-20T19:25:18;9.10;53.60
31991;DHT22;18508;49.386;8.370;2022-12-20T19:32:45;9.30;99.90
31991;DHT22;18508;49.386;8.370;2022-12-20T19:35:14;9.30;1.00
31991;DHT22;18508;49.386;8.370;2022-12-20T19:38:04;9.00;99.90
31991;DHT22;18508;49.386;8.370;2022-12-20T19:40:33;8.80;1.00